Time;durP1;ratioP1;P1;durP2;ratioP2;P2;SDS_P1;SDS_P2;PMS_P1;PMS_P2;Temp;Humidity;BMP_temperature;BMP_pressure;BME280_temperature;BME280_humidity;BME280_pressure;Samples;Min_cycle;Max_cycle;Signal;HPM_P1;HPM_P2
2021/04/15 00:00:18;;;;;;;0.47;0.47;;;;;;;;;;4960971;28;20213;-59
2021/04/15 00:02:45;;;;;;;0.00;0.00;;;;;;;;;;4958309;28;20189;-60
2021/04/15 00:05:13;;;;;;;1.43;0.50;;;;;;;;;;4958270;28;20310;-59
2021/04/15 00:07:40;;;;;;;0.20;0.20;;;;;;;;;;4954297;28;20695;-60
2021/04/15 00:10:10;;;;;;;6.20;1.77;;;;;;;;;;4974837;23;20727;-59
2021/04/15 00:12:38;;;;;;;2.10;1.23;;;;;;;;;;4961421;28;20177;-60
2021/04/15 00:15:08;;;;;;;5.20;2.03;;;;;;;;;;4965539;28;20212;-59
2021/04/15 00:17:34;;;;;;;0.60;0.60;;;;;;;;;;4963019;28;20182;-59
2021/04/15 00:20:05;;;;;;;1.23;1.23;;;;;;;;;;4956628;28;20209;-59
2021/04/15 00:22:32;;;;;;;3.73;1.17;;;;;;;;;;4957870;28;20178;-59
2021/04/15 00:25:01;;;;;;;2.37;1.83;;;;;;;;;;4960718;28;20193;-60
2021/04/15 00:27:27;;;;;;;0.73;0.73;;;;;;;;;;4959100;28;20181;-59
2021/04/15 00:29:54;;;;;;;2.17;1.03;;;;;;;;;;4957014;28;20190;-60
2021/04/15 00:32:20;;;;;;;0.93;0.67;;;;;;;;;;4955336;28;20186;-60
2021/04/15 00:34:49;;;;;;;1.00;0.47;;;;;;;;;;4951414;28;20202;-60
2021/04/15 00:37:17;;;;;;;4.93;3.90;;;;;;;;;;4959475;28;20301;-59
2021/04/15 00:39:44;;;;;;;0.47;0.47;;;;;;;;;;4961286;28;20241;-60
2021/04/15 00:42:11;;;;;;;2.47;0.93;;;;;;;;;;4960170;28;20200;-60
2021/04/15 00:44:39;;;;;;;0.50;0.40;;;;;;;;;;4964662;28;20182;-60
2021/04/15 00:47:15;;;;;;;1.30;0.90;;;;;;;;;;4957389;28;20745;-60
2021/04/15 00:49:53;;;;;;;2.67;0.73;;;;;;;;;;4959858;28;20208;-60
2021/04/15 00:52:22;;;;;;;0.40;0.40;;;;;;;;;;4959550;28;20182;-60
2021/04/15 00:55:00;;;;;;;0.30;0.27;;;;;;;;;;4969553;28;20662;-60
2021/04/15 00:57:31;;;;;;;1.70;1.27;;;;;;;;;;4957239;28;20592;-60
2021/04/15 00:59:58;;;;;;;1.07;1.00;;;;;;;;;;4956717;28;20209;-60
2021/04/15 01:02:26;;;;;;;0.37;0.37;;;;;;;;;;4958630;28;20739;-59
2021/04/15 01:04:57;;;;;;;2.87;1.07;;;;;;;;;;4957894;28;20189;-60
2021/04/15 01:07:23;;;;;;;0.30;0.30;;;;;;;;;;4957917;28;20690;-60
2021/04/15 01:09:50;;;;;;;0.60;0.60;;;;;;;;;;4952717;28;20230;-60
2021/04/15 01:12:33;;;;;;;0.00;0.00;;;;;;;;;;4961420;28;20289;-60
2021/04/15 01:15:21;;;;;;;1.60;1.17;;;;;;;;;;4957306;28;20659;-60
2021/04/15 01:17:51;;;;;;;1.80;1.13;;;;;;;;;;4958118;28;20178;-60
2021/04/15 01:20:26;;;;;;;0.30;0.30;;;;;;;;;;4954660;28;20198;-60
2021/04/15 01:23:11;;;;;;;0.73;0.33;;;;;;;;;;4955349;28;20236;-60
2021/04/15 01:25:56;;;;;;;0.10;0.10;;;;;;;;;;4958090;28;20186;-60
2021/04/15 01:28:27;;;;;;;2.27;0.93;;;;;;;;;;4956234;28;20185;-60
2021/04/15 01:31:05;;;;;;;0.10;0.10;;;;;;;;;;4957598;28;20660;-60
2021/04/15 01:33:59;;;;;;;0.40;0.30;;;;;;;;;;4959045;28;20197;-60
2021/04/15 01:36:30;;;;;;;0.30;0.30;;;;;;;;;;4956113;28;20194;-60
2021/04/15 01:39:06;;;;;;;1.43;1.20;;;;;;;;;;4956979;28;20213;-60
2021/04/15 01:41:35;;;;;;;4.90;1.50;;;;;;;;;;4959141;28;20252;-59
2021/04/15 01:44:04;;;;;;;0.30;0.30;;;;;;;;;;4956795;28;21046;-61
2021/04/15 01:46:33;;;;;;;13.80;0.90;;;;;;;;;;4956041;28;20190;-60
2021/04/15 01:49:01;;;;;;;0.00;0.00;;;;;;;;;;4957264;28;20654;-61
2021/04/15 01:51:58;;;;;;;1.53;1.43;;;;;;;;;;4955578;28;20194;-61
2021/04/15 01:54:30;;;;;;;6.30;2.13;;;;;;;;;;4953889;28;20209;-60
2021/04/15 01:57:04;;;;;;;0.00;0.00;;;;;;;;;;4956063;28;20178;-61
2021/04/15 01:59:37;;;;;;;0.10;0.10;;;;;;;;;;4957657;28;20524;-60
2021/04/15 02:02:12;;;;;;;0.00;0.00;;;;;;;;;;4958341;28;20214;-61
2021/04/15 02:04:41;;;;;;;0.60;0.60;;;;;;;;;;4956655;28;20189;-61
2021/04/15 02:07:12;;;;;;;0.20;0.20;;;;;;;;;;4954201;28;20189;-60
2021/04/15 02:09:42;;;;;;;0.13;0.13;;;;;;;;;;4954335;28;20259;-60
2021/04/15 02:12:11;;;;;;;0.30;0.30;;;;;;;;;;4952101;28;20183;-60
2021/04/15 02:14:42;;;;;;;0.10;0.10;;;;;;;;;;4953630;28;20198;-61
2021/04/15 02:17:11;;;;;;;0.00;0.00;;;;;;;;;;4953915;28;20206;-60
2021/04/15 02:19:44;;;;;;;0.63;0.63;;;;;;;;;;4955509;28;20193;-60
2021/04/15 02:22:16;;;;;;;0.10;0.10;;;;;;;;;;4957916;28;20190;-60
2021/04/15 02:25:01;;;;;;;0.00;0.00;;;;;;;;;;4954837;28;20189;-60
2021/04/15 02:27:49;;;;;;;7.63;1.97;;;;;;;;;;4956089;28;20189;-60
2021/04/15 02:30:21;;;;;;;2.33;0.63;;;;;;;;;;4951847;28;20178;-60
2021/04/15 02:32:52;;;;;;;0.10;0.10;;;;;;;;;;4958337;28;20182;-60
2021/04/15 02:35:27;;;;;;;0.97;0.80;;;;;;;;;;4958168;28;20915;-61
2021/04/15 02:37:56;;;;;;;3.87;1.80;;;;;;;;;;4952186;28;20647;-60
2021/04/15 02:40:25;;;;;;;0.10;0.10;;;;;;;;;;4967804;28;20277;-60
2021/04/15 02:42:52;;;;;;;0.33;0.33;;;;;;;;;;4951662;28;20269;-60
2021/04/15 02:45:39;;;;;;;4.33;0.33;;;;;;;;;;4955822;28;20341;-60
2021/04/15 02:48:12;;;;;;;0.33;0.33;;;;;;;;;;4957449;28;20181;-59
2021/04/15 02:50:39;;;;;;;0.17;0.17;;;;;;;;;;4958174;28;20186;-60
2021/04/15 02:53:10;;;;;;;2.23;0.50;;;;;;;;;;4953844;28;20186;-60
2021/04/15 02:55:40;;;;;;;0.30;0.30;;;;;;;;;;4956889;28;20182;-60
2021/04/15 02:58:18;;;;;;;0.00;0.00;;;;;;;;;;4959542;28;20187;-60
2021/04/15 03:00:45;;;;;;;0.50;0.50;;;;;;;;;;4953356;28;20211;-60
2021/04/15 03:03:23;;;;;;;1.20;1.20;;;;;;;;;;4956549;28;20190;-60
2021/04/15 03:05:52;;;;;;;0.63;0.30;;;;;;;;;;4959037;28;20184;-60
2021/04/15 03:08:20;;;;;;;2.47;1.40;;;;;;;;;;4961883;28;20189;-60
2021/04/15 03:10:58;;;;;;;0.67;0.67;;;;;;;;;;4961644;28;20221;-60
2021/04/15 03:13:44;;;;;;;2.20;1.00;;;;;;;;;;4957217;28;20193;-60
2021/04/15 03:16:15;;;;;;;0.20;0.20;;;;;;;;;;4955816;28;20186;-60
2021/04/15 03:18:44;;;;;;;1.10;1.00;;;;;;;;;;4954634;28;20189;-60
2021/04/15 03:21:18;;;;;;;1.13;1.13;;;;;;;;;;4956757;28;20576;-60
2021/04/15 03:23:56;;;;;;;6.83;1.97;;;;;;;;;;4959716;28;20197;-60
2021/04/15 03:26:29;;;;;;;4.47;1.17;;;;;;;;;;4962026;28;20268;-60
2021/04/15 03:29:07;;;;;;;0.10;0.10;;;;;;;;;;4957903;28;20189;-60
2021/04/15 03:31:42;;;;;;;0.43;0.43;;;;;;;;;;4955805;28;20180;-61
2021/04/15 03:34:13;;;;;;;0.03;0.03;;;;;;;;;;4952524;28;20296;-60
2021/04/15 03:36:41;;;;;;;0.00;0.00;;;;;;;;;;4959440;28;20190;-60
2021/04/15 03:39:14;;;;;;;0.20;0.20;;;;;;;;;;4960862;28;20911;-60
2021/04/15 03:41:43;;;;;;;0.33;0.33;;;;;;;;;;4961258;28;20233;-60
2021/04/15 03:44:11;;;;;;;0.17;0.17;;;;;;;;;;4957098;28;22308;-61
2021/04/15 03:46:43;;;;;;;0.87;0.87;;;;;;;;;;4957539;28;20185;-60
2021/04/15 03:49:18;;;;;;;4.33;2.80;;;;;;;;;;4954728;28;20676;-60
2021/04/15 03:52:05;;;;;;;12.37;2.83;;;;;;;;;;4951760;28;20596;-60
2021/04/15 03:54:37;;;;;;;7.73;1.43;;;;;;;;;;4956461;28;21367;-60
2021/04/15 03:57:05;;;;;;;0.30;0.30;;;;;;;;;;4954426;28;20191;-60
2021/04/15 03:59:41;;;;;;;12.20;1.77;;;;;;;;;;4956376;28;20189;-60
2021/04/15 04:02:11;;;;;;;8.43;1.63;;;;;;;;;;4955337;28;20208;-60
2021/04/15 04:04:40;;;;;;;0.10;0.10;;;;;;;;;;4954268;28;20178;-60
2021/04/15 04:07:27;;;;;;;0.30;0.30;;;;;;;;;;4957916;28;20189;-60
2021/04/15 04:10:16;;;;;;;0.23;0.20;;;;;;;;;;4955581;28;20312;-60
2021/04/15 04:12:57;;;;;;;4.80;3.53;;;;;;;;;;4953854;28;20189;-60
2021/04/15 04:15:29;;;;;;;2.63;1.90;;;;;;;;;;4951737;28;20182;-60
2021/04/15 04:18:02;;;;;;;0.40;0.40;;;;;;;;;;4964685;28;20183;-60
2021/04/15 04:20:32;;;;;;;1.10;1.00;;;;;;;;;;4961918;28;20525;-60
2021/04/15 04:23:03;;;;;;;0.40;0.40;;;;;;;;;;4963133;28;20670;-61
2021/04/15 04:25:39;;;;;;;0.00;0.00;;;;;;;;;;4952565;28;20195;-61
2021/04/15 04:28:14;;;;;;;1.40;0.80;;;;;;;;;;4963774;28;20181;-60
2021/04/15 04:30:55;;;;;;;2.10;0.57;;;;;;;;;;4954010;28;20523;-61
2021/04/15 04:33:27;;;;;;;2.03;0.90;;;;;;;;;;4961638;28;20193;-60
2021/04/15 04:36:01;;;;;;;2.00;1.10;;;;;;;;;;4954484;28;20578;-60
2021/04/15 04:38:28;;;;;;;1.07;0.97;;;;;;;;;;4958462;28;20280;-60
2021/04/15 04:40:58;;;;;;;5.37;2.43;;;;;;;;;;4960635;28;20218;-60
2021/04/15 04:43:30;;;;;;;0.77;0.77;;;;;;;;;;4956767;28;22174;-60
2021/04/15 04:46:02;;;;;;;0.17;0.17;;;;;;;;;;4958474;28;21014;-60
2021/04/15 04:48:31;;;;;;;0.17;0.17;;;;;;;;;;4957216;28;20186;-60
2021/04/15 04:51:01;;;;;;;0.47;0.47;;;;;;;;;;4954262;28;20251;-60
2021/04/15 04:53:29;;;;;;;0.63;0.30;;;;;;;;;;4955264;28;20175;-60
2021/04/15 04:56:01;;;;;;;4.27;1.37;;;;;;;;;;4957323;28;20189;-60
2021/04/15 04:58:31;;;;;;;0.80;0.80;;;;;;;;;;4957846;28;20182;-60
2021/04/15 05:01:00;;;;;;;0.60;0.60;;;;;;;;;;4957504;28;20181;-60
2021/04/15 05:03:30;;;;;;;0.00;0.00;;;;;;;;;;4952687;28;20182;-60
2021/04/15 05:06:05;;;;;;;1.37;0.60;;;;;;;;;;4950565;28;20189;-60
2021/04/15 05:08:44;;;;;;;0.87;0.57;;;;;;;;;;4955834;28;20184;-60
2021/04/15 05:11:10;;;;;;;0.73;0.73;;;;;;;;;;4958701;28;20240;-60
2021/04/15 05:13:37;;;;;;;1.23;0.83;;;;;;;;;;4958457;28;20186;-60
2021/04/15 05:16:04;;;;;;;0.20;0.20;;;;;;;;;;4957398;28;20185;-60
2021/04/15 05:18:31;;;;;;;0.23;0.23;;;;;;;;;;4945635;28;20305;-61
2021/04/15 05:21:17;;;;;;;0.30;0.30;;;;;;;;;;4953847;28;20193;-60
2021/04/15 05:23:49;;;;;;;0.87;0.80;;;;;;;;;;4951555;28;20552;-60
2021/04/15 05:26:24;;;;;;;0.10;0.10;;;;;;;;;;4953348;28;20196;-60
2021/04/15 05:28:51;;;;;;;6.93;1.53;;;;;;;;;;4958145;28;20645;-60
2021/04/15 05:31:21;;;;;;;0.20;0.20;;;;;;;;;;4953545;28;20208;-60
2021/04/15 05:33:47;;;;;;;1.67;0.93;;;;;;;;;;4950580;28;20557;-60
2021/04/15 05:36:52;;;;;;;0.63;0.50;;;;;;;;;;4949786;28;20890;-60
2021/04/15 05:39:20;;;;;;;0.10;0.10;;;;;;;;;;4905385;29;20186;-61
2021/04/15 05:41:50;;;;;;;0.20;0.20;;;;;;;;;;4908197;29;20202;-61
2021/04/15 05:44:20;;;;;;;0.77;0.63;;;;;;;;;;4927297;28;20288;-60
2021/04/15 05:46:48;;;;;;;2.07;0.77;;;;;;;;;;4958135;28;20177;-61
2021/04/15 05:49:25;;;;;;;0.10;0.10;;;;;;;;;;4954432;28;20671;-61
2021/04/15 05:51:57;;;;;;;0.63;0.50;;;;;;;;;;4954038;28;20294;-61
2021/04/15 05:54:24;;;;;;;1.10;0.20;;;;;;;;;;4953172;28;20276;-61
2021/04/15 05:57:10;;;;;;;1.07;0.87;;;;;;;;;;4952222;28;20195;-60
2021/04/15 05:59:39;;;;;;;0.10;0.10;;;;;;;;;;4949515;28;20220;-61
2021/04/15 06:02:08;;;;;;;0.30;0.30;;;;;;;;;;4952327;28;20204;-61
2021/04/15 06:04:40;;;;;;;0.20;0.20;;;;;;;;;;4957287;28;20754;-61
2021/04/15 06:07:07;;;;;;;1.60;0.60;;;;;;;;;;4957287;28;20461;-61
2021/04/15 06:09:33;;;;;;;1.90;0.60;;;;;;;;;;4958476;28;20228;-61
2021/04/15 06:12:09;;;;;;;0.10;0.10;;;;;;;;;;4959431;28;20236;-61
2021/04/15 06:14:42;;;;;;;0.30;0.30;;;;;;;;;;4952527;28;20201;-61
2021/04/15 06:17:27;;;;;;;0.33;0.30;;;;;;;;;;4955229;28;20193;-61
2021/04/15 06:19:55;;;;;;;0.43;0.40;;;;;;;;;;4954229;28;20208;-61
2021/04/15 06:22:24;;;;;;;0.10;0.10;;;;;;;;;;4958475;28;20205;-61
2021/04/15 06:24:55;;;;;;;0.70;0.70;;;;;;;;;;4962849;28;20189;-61
2021/04/15 06:27:22;;;;;;;0.93;0.67;;;;;;;;;;4960729;28;20193;-61
2021/04/15 06:29:58;;;;;;;0.87;0.57;;;;;;;;;;4958675;28;20717;-61
2021/04/15 06:32:28;;;;;;;0.03;0.03;;;;;;;;;;4960519;28;20234;-61
2021/04/15 06:34:57;;;;;;;0.50;0.50;;;;;;;;;;4972648;28;20195;-61
2021/04/15 06:37:36;;;;;;;0.27;0.27;;;;;;;;;;4959517;28;20330;-61
2021/04/15 06:40:21;;;;;;;1.03;0.63;;;;;;;;;;4963894;28;20211;-60
2021/04/15 06:43:00;;;;;;;1.10;0.93;;;;;;;;;;4950049;28;20281;-61
2021/04/15 06:45:27;;;;;;;0.10;0.10;;;;;;;;;;4958548;28;20929;-61
2021/04/15 06:48:07;;;;;;;0.20;0.20;;;;;;;;;;4957842;28;20240;-61
2021/04/15 06:50:51;;;;;;;0.57;0.57;;;;;;;;;;4955085;28;20549;-61
2021/04/15 06:53:27;;;;;;;0.10;0.10;;;;;;;;;;4960902;28;20288;-61
2021/04/15 06:56:02;;;;;;;0.03;0.03;;;;;;;;;;4970234;28;20270;-61
2021/04/15 06:58:41;;;;;;;0.30;0.30;;;;;;;;;;4957935;28;20797;-60
2021/04/15 07:01:17;;;;;;;2.37;0.60;;;;;;;;;;4954856;28;20275;-61
2021/04/15 07:03:56;;;;;;;0.10;0.10;;;;;;;;;;4965785;28;20716;-61
2021/04/15 07:06:41;;;;;;;0.20;0.20;;;;;;;;;;4955023;28;20756;-61
2021/04/15 07:09:10;;;;;;;0.10;0.10;;;;;;;;;;4967566;28;20182;-61
2021/04/15 07:11:48;;;;;;;0.10;0.10;;;;;;;;;;4964400;28;20555;-61
2021/04/15 07:14:32;;;;;;;1.53;1.43;;;;;;;;;;4953814;28;20192;-61
2021/04/15 07:17:11;;;;;;;0.10;0.10;;;;;;;;;;4951537;28;20200;-61
2021/04/15 07:19:56;;;;;;;0.10;0.10;;;;;;;;;;4959205;28;20953;-61
2021/04/15 07:22:31;;;;;;;0.67;0.67;;;;;;;;;;4957438;28;20212;-62
2021/04/15 07:24:58;;;;;;;1.10;0.83;;;;;;;;;;4956453;28;20985;-61
2021/04/15 07:27:40;;;;;;;0.10;0.10;;;;;;;;;;4958075;28;20183;-61
2021/04/15 07:30:12;;;;;;;0.53;0.53;;;;;;;;;;4952977;28;20262;-61
2021/04/15 07:32:54;;;;;;;1.60;1.17;;;;;;;;;;4953294;28;20184;-60
2021/04/15 07:35:36;;;;;;;0.10;0.10;;;;;;;;;;4954238;28;20188;-61
2021/04/15 07:38:23;;;;;;;1.40;0.37;;;;;;;;;;4955277;28;20220;-60
2021/04/15 07:40:49;;;;;;;0.17;0.17;;;;;;;;;;4958368;28;20196;-61
2021/04/15 07:43:28;;;;;;;0.20;0.20;;;;;;;;;;4949878;28;20769;-61
2021/04/15 07:46:13;;;;;;;0.10;0.10;;;;;;;;;;4950881;28;20754;-61
2021/04/15 07:48:54;;;;;;;0.10;0.10;;;;;;;;;;4956359;28;20196;-61
2021/04/15 07:51:40;;;;;;;0.17;0.17;;;;;;;;;;4949777;28;20245;-60
2021/04/15 07:54:25;;;;;;;0.53;0.53;;;;;;;;;;4956564;28;20391;-61
2021/04/15 07:57:01;;;;;;;0.10;0.10;;;;;;;;;;4960914;28;20195;-61
2021/04/15 07:59:36;;;;;;;0.10;0.10;;;;;;;;;;4953810;28;20634;-61
2021/04/15 08:02:32;;;;;;;0.83;0.43;;;;;;;;;;4951951;28;20300;-61
2021/04/15 08:05:04;;;;;;;0.33;0.30;;;;;;;;;;4951859;28;20204;-61
2021/04/15 08:07:41;;;;;;;0.30;0.30;;;;;;;;;;4949980;28;20185;-61
2021/04/15 08:10:25;;;;;;;0.10;0.10;;;;;;;;;;4945077;28;20826;-61
2021/04/15 08:13:13;;;;;;;0.10;0.10;;;;;;;;;;4960869;28;20295;-61
2021/04/15 08:16:03;;;;;;;0.10;0.10;;;;;;;;;;4954962;28;20218;-60
2021/04/15 08:18:36;;;;;;;1.03;0.77;;;;;;;;;;4946813;28;20211;-61
2021/04/15 08:21:02;;;;;;;0.10;0.10;;;;;;;;;;4958750;28;20494;-61
2021/04/15 08:23:32;;;;;;;0.20;0.20;;;;;;;;;;4955244;28;20194;-60
2021/04/15 08:26:07;;;;;;;0.20;0.20;;;;;;;;;;4957689;28;20283;-61
2021/04/15 08:28:39;;;;;;;0.10;0.10;;;;;;;;;;4953469;28;20185;-61
2021/04/15 08:31:12;;;;;;;1.50;1.40;;;;;;;;;;4963912;28;20189;-61
2021/04/15 08:33:54;;;;;;;0.20;0.20;;;;;;;;;;4959601;28;20199;-61
2021/04/15 08:36:26;;;;;;;0.10;0.10;;;;;;;;;;4955479;28;20215;-62
2021/04/15 08:38:59;;;;;;;0.10;0.10;;;;;;;;;;4964184;28;20554;-60
2021/04/15 08:41:29;;;;;;;0.10;0.10;;;;;;;;;;4955350;28;20707;-61
2021/04/15 08:44:11;;;;;;;0.10;0.10;;;;;;;;;;4948930;28;20662;-61
2021/04/15 08:46:52;;;;;;;3.53;1.30;;;;;;;;;;4951017;28;21090;-61
2021/04/15 08:49:41;;;;;;;0.10;0.10;;;;;;;;;;4948769;28;20189;-61
2021/04/15 08:52:40;;;;;;;0.20;0.20;;;;;;;;;;4954463;28;20358;-61
2021/04/15 08:55:21;;;;;;;9.63;1.73;;;;;;;;;;4903940;28;20322;-61
2021/04/15 08:58:00;;;;;;;0.73;0.73;;;;;;;;;;4954662;28;20211;-61
2021/04/15 09:00:39;;;;;;;1.53;1.50;;;;;;;;;;4952432;28;20809;-60
2021/04/15 09:03:10;;;;;;;0.10;0.10;;;;;;;;;;4952188;28;20271;-61
2021/04/15 09:05:54;;;;;;;0.10;0.10;;;;;;;;;;4948864;28;21009;-61
2021/04/15 09:08:36;;;;;;;0.10;0.10;;;;;;;;;;4959230;28;20963;-61
2021/04/15 09:11:04;;;;;;;0.10;0.10;;;;;;;;;;4957951;28;21096;-61
2021/04/15 09:13:39;;;;;;;0.43;0.43;;;;;;;;;;4958744;28;20198;-61
2021/04/15 09:16:32;;;;;;;0.27;0.27;;;;;;;;;;4954618;28;20192;-60
2021/04/15 09:19:12;;;;;;;0.10;0.10;;;;;;;;;;4958014;28;20193;-61
2021/04/15 09:21:57;;;;;;;1.77;0.40;;;;;;;;;;4955103;28;20209;-60
2021/04/15 09:24:27;;;;;;;3.13;2.97;;;;;;;;;;4959656;28;20174;-62
2021/04/15 09:26:59;;;;;;;0.73;0.47;;;;;;;;;;4956168;28;20731;-61
2021/04/15 09:29:35;;;;;;;0.23;0.23;;;;;;;;;;4958591;28;20271;-61
2021/04/15 09:32:04;;;;;;;0.87;0.87;;;;;;;;;;4955949;28;20193;-61
2021/04/15 09:34:46;;;;;;;0.20;0.20;;;;;;;;;;4955792;28;20704;-61
2021/04/15 09:37:12;;;;;;;0.50;0.50;;;;;;;;;;4956277;28;20494;-61
2021/04/15 09:40:01;;;;;;;0.60;0.60;;;;;;;;;;4957252;28;20284;-60
2021/04/15 09:42:39;;;;;;;0.90;0.87;;;;;;;;;;4959544;28;20199;-61
2021/04/15 09:45:24;;;;;;;23.53;2.37;;;;;;;;;;4957120;28;20186;-61
2021/04/15 09:48:03;;;;;;;1.30;0.87;;;;;;;;;;4955746;28;20660;-60
2021/04/15 09:50:35;;;;;;;1.50;1.40;;;;;;;;;;4953904;28;20183;-60
2021/04/15 09:53:17;;;;;;;0.20;0.20;;;;;;;;;;4956412;28;20184;-60
2021/04/15 09:56:02;;;;;;;0.20;0.20;;;;;;;;;;4957975;28;20670;-61
2021/04/15 09:58:38;;;;;;;0.10;0.10;;;;;;;;;;4963088;28;20562;-60
2021/04/15 10:01:15;;;;;;;0.37;0.37;;;;;;;;;;4962488;28;20189;-61
2021/04/15 10:03:47;;;;;;;11.20;1.60;;;;;;;;;;4961749;28;20197;-61
2021/04/15 12:58:30;;;;;;;6.20;0.57;;;;;;;;;;5058121;27;20570;-51
2021/04/15 13:00:58;;;;;;;0.77;0.30;;;;;;;;;;5055928;28;20181;-60
2021/04/15 13:03:30;;;;;;;0.40;0.23;;;;;;;;;;5055861;28;20181;-60
2021/04/15 13:05:59;;;;;;;0.13;0.13;;;;;;;;;;5056388;28;20247;-61
2021/04/15 13:08:28;;;;;;;1.60;1.47;;;;;;;;;;5054583;28;20208;-60
2021/04/15 13:10:54;;;;;;;0.33;0.27;;;;;;;;;;5054723;28;20198;-61
2021/04/15 13:13:35;;;;;;;0.73;0.73;;;;;;;;;;5053242;28;20183;-61
2021/04/15 13:16:03;;;;;;;1.17;0.50;;;;;;;;;;5051403;28;20512;-61
2021/04/15 13:18:41;;;;;;;0.00;0.00;;;;;;;;;;5055930;28;20191;-60
2021/04/15 13:21:13;;;;;;;0.00;0.00;;;;;;;;;;5057820;28;20457;-60
2021/04/15 13:23:41;;;;;;;0.00;0.00;;;;;;;;;;5056286;28;20303;-60
2021/04/15 13:26:11;;;;;;;1.13;0.47;;;;;;;;;;5053889;28;20767;-60
2021/04/15 13:28:47;;;;;;;0.70;0.70;;;;;;;;;;5050154;28;20421;-60
2021/04/15 13:31:34;;;;;;;1.13;0.30;;;;;;;;;;5054645;28;20276;-60
2021/04/15 13:34:03;;;;;;;1.10;0.40;;;;;;;;;;5050629;28;20630;-51
2021/04/15 13:36:30;;;;;;;0.97;0.57;;;;;;;;;;5056424;28;20260;-48
2021/04/15 13:38:59;;;;;;;0.30;0.10;;;;;;;;;;5048090;28;20192;-50
2021/04/15 13:41:27;;;;;;;2.47;0.93;;;;;;;;;;5048845;28;20280;-50
2021/04/15 13:43:55;;;;;;;17.63;2.17;;;;;;;;;;5047631;28;20191;-53
2021/04/15 13:46:30;;;;;;;3.60;0.33;;;;;;;;;;5052040;28;20187;-54
2021/04/15 13:49:12;;;;;;;0.20;0.20;;;;;;;;;;5054685;28;20216;-54
2021/04/15 13:51:52;;;;;;;0.47;0.30;;;;;;;;;;5052321;28;20588;-52
2021/04/15 13:54:21;;;;;;;0.03;0.03;;;;;;;;;;5054664;28;20538;-52
2021/04/15 13:56:54;;;;;;;3.50;0.93;;;;;;;;;;5054665;28;20353;-52
2021/04/15 14:02:05;;;;;;;5.30;0.97;;;;;;;;;;5046721;28;22553;-55
2021/04/15 14:04:56;;;;;;;0.70;0.47;;;;;;;;;;5051387;28;20191;-54
2021/04/15 14:07:22;;;;;;;0.93;0.57;;;;;;;;;;5049843;28;20483;-53
2021/04/15 14:09:54;;;;;;;0.43;0.40;;;;;;;;;;5029866;28;20208;-54
2021/04/15 14:12:39;;;;;;;0.83;0.77;;;;;;;;;;5038492;28;20623;-50
2021/04/15 14:15:26;;;;;;;0.53;0.53;;;;;;;;;;5041784;28;20222;-51
2021/04/15 14:17:54;;;;;;;0.70;0.33;;;;;;;;;;5041062;28;20686;-51
2021/04/15 14:20:38;;;;;;;0.37;0.33;;;;;;;;;;5028865;28;20184;-53
2021/04/15 14:23:11;;;;;;;0.57;0.30;;;;;;;;;;5037531;28;20189;-51
2021/04/15 14:25:38;;;;;;;0.20;0.20;;;;;;;;;;5038687;28;20437;-52
2021/04/15 14:28:10;;;;;;;0.73;0.63;;;;;;;;;;5042464;28;20202;-54
2021/04/15 14:30:37;;;;;;;0.27;0.27;;;;;;;;;;5034456;28;20500;-50
2021/04/15 14:33:18;;;;;;;0.20;0.20;;;;;;;;;;5036639;28;20202;-50
2021/04/15 14:35:45;;;;;;;0.30;0.30;;;;;;;;;;5038796;28;20238;-50
2021/04/15 14:38:16;;;;;;;1.77;1.10;;;;;;;;;;5038195;28;20932;-51
2021/04/15 14:40:42;;;;;;;1.30;0.77;;;;;;;;;;5041570;28;20526;-50
2021/04/15 14:43:14;;;;;;;0.57;0.20;;;;;;;;;;5037897;28;20184;-50
2021/04/15 14:45:41;;;;;;;0.87;0.40;;;;;;;;;;5039179;28;20190;-49
2021/04/15 14:48:18;;;;;;;0.77;0.63;;;;;;;;;;5038626;28;20248;-60
2021/04/15 14:50:45;;;;;;;0.60;0.60;;;;;;;;;;5037752;28;20185;-59
2021/04/15 14:53:13;;;;;;;15.83;2.43;;;;;;;;;;5039814;28;20212;-60
2021/04/15 14:55:40;;;;;;;0.20;0.20;;;;;;;;;;5037263;28;20195;-51
2021/04/15 14:58:14;;;;;;;0.13;0.13;;;;;;;;;;5035860;28;20230;-49
2021/04/15 15:00:46;;;;;;;0.73;0.50;;;;;;;;;;5040230;28;20201;-51
2021/04/15 15:03:17;;;;;;;0.10;0.10;;;;;;;;;;5032167;28;20358;-50
2021/04/15 15:05:44;;;;;;;0.43;0.37;;;;;;;;;;5038445;28;20230;-48
2021/04/15 15:08:15;;;;;;;0.57;0.10;;;;;;;;;;5035523;28;20187;-48
2021/04/15 15:10:42;;;;;;;0.00;0.00;;;;;;;;;;5034454;28;20704;-53
2021/04/15 15:13:10;;;;;;;2.63;0.67;;;;;;;;;;5033447;28;20191;-49
2021/04/15 15:15:38;;;;;;;0.80;0.80;;;;;;;;;;5038217;28;20195;-53
2021/04/15 15:18:06;;;;;;;0.30;0.30;;;;;;;;;;5030102;28;20230;-50
2021/04/15 15:20:32;;;;;;;0.27;0.27;;;;;;;;;;5038929;28;20195;-49
2021/04/15 15:23:05;;;;;;;2.53;1.03;;;;;;;;;;5043776;28;20190;-49
2021/04/15 15:25:37;;;;;;;0.37;0.37;;;;;;;;;;5037130;28;20275;-51
2021/04/15 15:28:04;;;;;;;1.40;0.93;;;;;;;;;;5035710;28;20619;-52
2021/04/15 15:30:36;;;;;;;0.60;0.60;;;;;;;;;;5039545;28;20189;-48
2021/04/15 15:33:13;;;;;;;0.73;0.70;;;;;;;;;;5038661;28;20274;-52
2021/04/15 15:35:41;;;;;;;1.50;0.83;;;;;;;;;;5039376;28;20817;-60
2021/04/15 15:38:18;;;;;;;1.60;0.50;;;;;;;;;;5040522;28;20213;-60
2021/04/15 15:40:45;;;;;;;0.30;0.20;;;;;;;;;;5040927;28;20188;-60
2021/04/15 15:43:14;;;;;;;10.50;0.97;;;;;;;;;;5046561;28;20215;-60
2021/04/15 15:45:43;;;;;;;1.13;0.70;;;;;;;;;;5039110;28;20245;-60
2021/04/15 15:48:11;;;;;;;0.23;0.23;;;;;;;;;;5040665;28;20216;-60
2021/04/15 15:50:40;;;;;;;4.33;2.37;;;;;;;;;;5035438;28;20515;-60
2021/04/15 15:53:29;;;;;;;0.37;0.37;;;;;;;;;;5034258;28;20797;-60
2021/04/15 15:55:56;;;;;;;1.13;0.53;;;;;;;;;;5035775;28;20626;-60
2021/04/15 15:58:26;;;;;;;1.13;1.03;;;;;;;;;;5038407;28;20243;-61
2021/04/15 16:01:13;;;;;;;2.90;0.87;;;;;;;;;;5039000;28;20206;-61
2021/04/15 16:03:40;;;;;;;0.63;0.50;;;;;;;;;;5035290;28;20196;-50
2021/04/15 16:06:20;;;;;;;0.83;0.70;;;;;;;;;;5039581;28;20624;-53
2021/04/15 16:08:48;;;;;;;0.93;0.80;;;;;;;;;;5035165;28;20198;-52
2021/04/15 16:11:36;;;;;;;0.10;0.10;;;;;;;;;;5033258;28;20247;-46
2021/04/15 16:14:03;;;;;;;0.00;0.00;;;;;;;;;;5039938;28;20604;-49
2021/04/15 16:16:29;;;;;;;0.73;0.60;;;;;;;;;;5038892;28;20823;-52
2021/04/15 16:18:56;;;;;;;0.10;0.10;;;;;;;;;;5038541;28;20183;-48
2021/04/15 16:21:23;;;;;;;10.73;1.50;;;;;;;;;;5039773;28;20894;-53
2021/04/15 16:23:51;;;;;;;0.20;0.20;;;;;;;;;;5039828;28;20196;-50
2021/04/15 16:26:18;;;;;;;1.47;1.00;;;;;;;;;;5037101;28;20975;-50
2021/04/15 16:28:45;;;;;;;0.00;0.00;;;;;;;;;;5031179;28;20188;-48
2021/04/15 16:31:12;;;;;;;0.10;0.10;;;;;;;;;;5039855;28;20206;-52
2021/04/15 16:33:39;;;;;;;0.60;0.60;;;;;;;;;;5037764;28;21016;-52
2021/04/15 16:36:06;;;;;;;5.90;1.40;;;;;;;;;;5034468;28;20234;-51
2021/04/15 16:38:36;;;;;;;1.27;0.40;;;;;;;;;;5035855;28;20251;-51
2021/04/15 16:41:03;;;;;;;3.17;0.53;;;;;;;;;;5040293;28;20196;-50
2021/04/15 16:43:29;;;;;;;1.50;0.30;;;;;;;;;;5029837;28;20188;-49
2021/04/15 16:45:56;;;;;;;0.40;0.37;;;;;;;;;;5034522;28;20192;-49
2021/04/15 16:48:23;;;;;;;0.60;0.60;;;;;;;;;;5038794;28;20193;-51
2021/04/15 16:50:50;;;;;;;0.67;0.40;;;;;;;;;;5038812;28;20191;-48
2021/04/15 16:53:17;;;;;;;0.73;0.63;;;;;;;;;;5036002;28;20187;-49
2021/04/15 16:55:43;;;;;;;1.83;0.50;;;;;;;;;;5031497;28;20936;-50
2021/04/15 16:58:13;;;;;;;7.43;5.30;;;;;;;;;;5039098;28;20276;-48
2021/04/15 17:00:45;;;;;;;0.63;0.00;;;;;;;;;;5037581;28;20330;-47
2021/04/15 17:03:12;;;;;;;0.00;0.00;;;;;;;;;;5036497;28;20198;-49
2021/04/15 17:05:39;;;;;;;0.10;0.10;;;;;;;;;;5037378;28;20184;-49
2021/04/15 17:08:07;;;;;;;0.00;0.00;;;;;;;;;;5039728;28;20581;-49
2021/04/15 17:10:34;;;;;;;2.73;0.77;;;;;;;;;;5036749;28;20286;-47
2021/04/15 17:13:02;;;;;;;0.53;0.10;;;;;;;;;;5034970;28;20196;-50
2021/04/15 17:15:28;;;;;;;1.03;0.50;;;;;;;;;;5035755;28;20291;-49
2021/04/15 17:17:55;;;;;;;0.00;0.00;;;;;;;;;;5031956;28;20710;-49
2021/04/15 17:20:23;;;;;;;15.47;2.87;;;;;;;;;;5035901;28;20190;-51
2021/04/15 17:22:50;;;;;;;0.50;0.40;;;;;;;;;;5039274;28;20277;-52
2021/04/15 17:25:19;;;;;;;0.33;0.30;;;;;;;;;;5038476;28;20214;-48
2021/04/15 17:27:46;;;;;;;0.70;0.50;;;;;;;;;;5039242;28;20225;-50
2021/04/15 17:30:14;;;;;;;0.10;0.10;;;;;;;;;;5040714;28;20462;-49
2021/04/15 17:32:41;;;;;;;1.83;0.80;;;;;;;;;;5037608;28;20257;-48
2021/04/15 17:35:09;;;;;;;0.70;0.50;;;;;;;;;;5034598;28;20470;-54
2021/04/15 17:37:35;;;;;;;1.43;0.83;;;;;;;;;;5036015;28;20228;-49
2021/04/15 17:40:02;;;;;;;0.20;0.20;;;;;;;;;;5039313;28;20195;-50
2021/04/15 17:42:28;;;;;;;0.20;0.20;;;;;;;;;;5039287;28;20198;-62
2021/04/15 17:44:55;;;;;;;0.80;0.80;;;;;;;;;;5041479;28;20211;-62
2021/04/15 17:47:21;;;;;;;0.20;0.20;;;;;;;;;;5039555;28;21265;-63
2021/04/15 17:49:48;;;;;;;0.73;0.73;;;;;;;;;;5041394;28;20182;-63
2021/04/15 17:52:15;;;;;;;0.50;0.50;;;;;;;;;;5039477;28;20190;-63
2021/04/15 17:54:41;;;;;;;0.13;0.13;;;;;;;;;;5043430;28;20188;-62
2021/04/15 17:57:11;;;;;;;0.20;0.20;;;;;;;;;;5038183;28;20233;-62
2021/04/15 17:59:38;;;;;;;0.57;0.40;;;;;;;;;;5037877;28;20867;-61
2021/04/15 18:02:04;;;;;;;1.37;1.27;;;;;;;;;;5043662;28;20187;-64
2021/04/15 18:04:31;;;;;;;0.60;0.50;;;;;;;;;;5042887;28;20252;-63
2021/04/15 18:06:58;;;;;;;0.63;0.33;;;;;;;;;;5040482;28;20263;-61
2021/04/15 18:09:24;;;;;;;1.23;1.07;;;;;;;;;;5035549;28;20248;-46
2021/04/15 18:11:52;;;;;;;0.10;0.10;;;;;;;;;;5033602;28;20259;-48